Time;durP1;ratioP1;P1;durP2;ratioP2;P2;SDS_P1;SDS_P2;PMS_P1;PMS_P2;Temp;Humidity;BMP_temperature;BMP_pressure;BME280_temperature;BME280_humidity;BME280_pressure;Samples;Min_cycle;Max_cycle;Signal;HPM_P1;HPM_P2
2023/01/26 00:01:29;;;;;;;3.33;0.98;;;-0.30;99.90;;;;;;5092760;28;20430;-69
2023/01/26 00:03:56;;;;;;;1.50;1.00;;;-0.40;99.90;;;;;;5086141;28;20435;-69
2023/01/26 00:06:25;;;;;;;4.70;1.50;;;-0.40;99.90;;;;;;5077921;28;20431;-69
2023/01/26 00:08:58;;;;;;;2.90;1.40;;;-0.40;99.90;;;;;;5099167;28;20425;-70
2023/01/26 00:11:27;;;;;;;2.15;1.08;;;-0.40;99.90;;;;;;5092298;28;20513;-69
2023/01/26 00:13:56;;;;;;;2.50;1.70;;;-0.50;99.90;;;;;;5085610;28;20429;-69
2023/01/26 00:16:38;;;;;;;6.57;1.23;;;-0.50;99.90;;;;;;5072001;28;20429;-69
2023/01/26 00:19:05;;;;;;;2.97;1.37;;;-0.50;99.90;;;;;;5094822;28;20425;-70
2023/01/26 00:21:32;;;;;;;1.52;0.82;;;-0.60;99.90;;;;;;5085122;28;20444;-69
2023/01/26 00:23:59;;;;;;;2.00;1.30;;;-0.60;1.00;;;;;;5099528;28;20526;-69
2023/01/26 00:26:29;;;;;;;1.37;1.07;;;-0.60;1.00;;;;;;5103814;28;20453;-69
2023/01/26 00:28:59;;;;;;;3.30;0.85;;;-0.60;17.20;;;;;;5104213;28;20434;-69
2023/01/26 00:31:26;;;;;;;3.70;1.33;;;-0.60;67.10;;;;;;5088290;28;20429;-69
2023/01/26 00:33:55;;;;;;;0.73;0.70;;;-0.60;99.90;;;;;;5085828;28;20550;-69
2023/01/26 00:36:22;;;;;;;2.75;0.88;;;-0.60;99.90;;;;;;5102161;28;20463;-69
2023/01/26 00:38:55;;;;;;;1.10;1.02;;;-0.50;99.90;;;;;;5071813;28;20511;-69
2023/01/26 00:44:07;;;;;;;5.05;1.00;;;-0.50;99.90;;;;;;5075146;28;20432;-69
2023/01/26 00:46:34;;;;;;;0.80;0.80;;;-0.50;99.90;;;;;;5088187;28;20823;-69
2023/01/26 00:49:01;;;;;;;1.20;1.00;;;-0.50;99.90;;;;;;5092477;28;20435;-69
2023/01/26 00:51:28;;;;;;;0.93;0.93;;;-0.40;99.90;;;;;;5090960;28;20424;-69
2023/01/26 00:53:55;;;;;;;1.98;1.27;;;-0.40;99.90;;;;;;5094385;28;20436;-69
2023/01/26 00:56:22;;;;;;;1.97;1.17;;;-0.40;99.90;;;;;;5096252;28;20447;-69
2023/01/26 00:58:48;;;;;;;1.50;1.00;;;-0.40;99.90;;;;;;5104500;28;20424;-68
2023/01/26 01:01:15;;;;;;;6.90;1.42;;;-0.40;99.90;;;;;;5087071;28;20433;-69
2023/01/26 01:03:42;;;;;;;5.90;1.80;;;-0.40;99.90;;;;;;5089553;28;20427;-69
2023/01/26 01:06:09;;;;;;;2.05;1.52;;;-0.40;99.90;;;;;;5073973;28;20435;-69
2023/01/26 01:08:37;;;;;;;1.90;0.95;;;-0.40;99.90;;;;;;5091728;28;21077;-68
2023/01/26 01:11:09;;;;;;;2.10;0.90;;;-0.50;99.90;;;;;;5095027;28;20430;-68
2023/01/26 01:13:36;;;;;;;1.13;1.13;;;-0.50;99.90;;;;;;5088309;28;20422;-68
2023/01/26 01:16:07;;;;;;;0.90;0.80;;;-0.50;99.90;;;;;;5095272;28;20457;-68
2023/01/26 01:18:35;;;;;;;1.80;1.07;;;-0.50;99.90;;;;;;5075070;28;20525;-69
2023/01/26 01:21:08;;;;;;;7.20;1.73;;;-0.50;99.90;;;;;;5090476;28;20501;-69
2023/01/26 01:23:35;;;;;;;1.60;0.90;;;-0.40;99.90;;;;;;5068027;28;20439;-69
2023/01/26 01:26:03;;;;;;;3.33;1.13;;;-0.40;99.90;;;;;;5079084;28;20430;-69
2023/01/26 01:28:30;;;;;;;1.03;1.03;;;-0.40;99.90;;;;;;5090423;28;21070;-69
2023/01/26 01:30:57;;;;;;;1.05;0.88;;;-0.40;99.90;;;;;;5079794;28;20428;-69
2023/01/26 01:33:24;;;;;;;3.30;0.90;;;-0.30;99.90;;;;;;5090979;28;20422;-69
2023/01/26 01:36:03;;;;;;;1.77;1.30;;;-0.30;99.90;;;;;;5072491;28;20434;-69
2023/01/26 01:38:30;;;;;;;1.17;1.08;;;-0.30;99.90;;;;;;5080562;28;20975;-69
2023/01/26 01:40:57;;;;;;;1.55;0.70;;;-0.40;99.90;;;;;;5092579;28;20475;-69
2023/01/26 01:43:25;;;;;;;4.90;0.95;;;-0.40;43.80;;;;;;5083864;28;20837;-69
2023/01/26 01:45:53;;;;;;;0.60;0.60;;;-0.40;36.40;;;;;;5085596;28;20431;-69
2023/01/26 01:48:46;;;;;;;0.98;0.98;;;-0.40;60.50;;;;;;5092634;27;20425;-68
2023/01/26 01:51:18;;;;;;;1.03;0.77;;;-0.40;35.60;;;;;;5105754;28;20898;-69
2023/01/26 01:53:49;;;;;;;0.80;0.63;;;-0.50;99.90;;;;;;5081426;28;20430;-69
2023/01/26 01:56:20;;;;;;;4.30;0.77;;;-0.50;99.90;;;;;;5084870;28;20502;-69
2023/01/26 01:58:50;;;;;;;1.10;0.70;;;-0.50;99.90;;;;;;5090259;28;20742;-69
2023/01/26 02:01:17;;;;;;;0.93;0.93;;;-0.50;99.90;;;;;;5085920;28;20423;-69
2023/01/26 02:03:46;;;;;;;1.27;0.98;;;-0.60;99.90;;;;;;5089277;28;20514;-69
2023/01/26 02:06:18;;;;;;;1.15;1.05;;;-0.60;42.10;;;;;;5075703;28;20448;-69
2023/01/26 02:08:51;;;;;;;0.90;0.50;;;-0.60;41.10;;;;;;5096477;28;20439;-70
2023/01/26 02:11:32;;;;;;;0.57;0.57;;;-0.60;80.20;;;;;;5097610;28;20929;-69
2023/01/26 02:14:05;;;;;;;1.50;1.40;;;-0.60;86.60;;;;;;5093781;28;20542;-69
2023/01/26 02:16:32;;;;;;;0.38;0.38;;;-0.60;99.90;;;;;;5075210;28;20432;-69
2023/01/26 02:18:59;;;;;;;1.42;1.08;;;-0.70;99.90;;;;;;5079550;28;20459;-69
2023/01/26 02:21:30;;;;;;;1.38;1.13;;;-0.60;99.90;;;;;;5085987;28;20993;-69
2023/01/26 02:24:07;;;;;;;1.60;0.65;;;-0.60;99.90;;;;;;5079266;28;20517;-68
2023/01/26 02:26:35;;;;;;;1.00;1.00;;;-0.60;99.90;;;;;;5079746;28;20432;-68
2023/01/26 02:29:05;;;;;;;6.63;1.10;;;-0.60;99.90;;;;;;5074186;28;20437;-68
2023/01/26 02:31:32;;;;;;;1.20;0.82;;;-0.60;99.90;;;;;;5102573;28;20439;-68
2023/01/26 02:33:58;;;;;;;0.75;0.75;;;-0.70;99.90;;;;;;5074190;28;20430;-68
2023/01/26 02:36:28;;;;;;;1.40;0.77;;;-0.60;99.90;;;;;;5076628;28;20434;-68
2023/01/26 02:39:20;;;;;;;0.63;0.63;;;-0.70;99.90;;;;;;5071924;28;20448;-68
2023/01/26 02:44:36;;;;;;;1.05;1.02;;;-0.70;99.90;;;;;;5104294;28;20424;-68
2023/01/26 02:47:14;;;;;;;0.65;0.60;;;-0.80;99.90;;;;;;5090307;28;20428;-68
2023/01/26 02:49:49;;;;;;;1.10;0.80;;;-0.80;99.90;;;;;;5091621;28;20430;-68
2023/01/26 02:52:21;;;;;;;1.40;0.82;;;-0.90;99.90;;;;;;5090687;28;20443;-68
2023/01/26 02:57:34;;;;;;;1.10;1.00;;;-0.90;99.90;;;;;;5088405;28;20428;-68
2023/01/26 03:00:03;;;;;;;1.20;0.70;;;-0.90;99.90;;;;;;5085131;28;20465;-68
2023/01/26 03:02:29;;;;;;;4.15;1.15;;;-0.80;99.90;;;;;;5090520;28;20428;-69
2023/01/26 03:04:56;;;;;;;0.20;0.20;;;-0.80;99.90;;;;;;5081197;28;20443;-69
2023/01/26 03:07:23;;;;;;;2.80;0.50;;;-0.90;99.90;;;;;;5077463;28;20508;-68
2023/01/26 03:09:50;;;;;;;1.40;0.80;;;-1.00;34.60;;;;;;5080265;28;20508;-69
2023/01/26 03:12:17;;;;;;;0.53;0.53;;;-1.00;1.00;;;;;;5101373;28;20425;-69
2023/01/26 03:15:33;;;;;;;0.20;0.20;;;-1.00;1.00;;;;;;5084179;28;20426;-69
2023/01/26 03:17:33;;;;;;;0.70;0.70;;;-1.00;1.00;;;;;;5092623;28;20762;-68
2023/01/26 03:28:22;;;;;;;0.80;0.60;;;-1.00;58.40;;;;;;5089489;28;20444;-68
2023/01/26 03:30:50;;;;;;;0.30;0.30;;;-1.00;1.00;;;;;;5081551;28;20429;-68
2023/01/26 03:33:18;;;;;;;0.30;0.30;;;-1.00;1.00;;;;;;5090217;28;20428;-68
2023/01/26 03:35:46;;;;;;;0.50;0.50;;;-1.00;1.00;;;;;;5085395;28;20503;-69
2023/01/26 03:38:13;;;;;;;0.45;0.45;;;-1.00;1.00;;;;;;5082196;28;20424;-69
2023/01/26 03:57:12;;;;;;;0.40;0.40;;;-1.00;1.00;;;;;;5070445;28;22378;-68
2023/01/26 03:59:39;;;;;;;0.20;0.20;;;-1.10;1.00;;;;;;5087693;28;20428;-70
2023/01/26 04:10:27;;;;;;;0.20;0.20;;;-1.00;99.90;;;;;;5086942;28;21234;-68
2023/01/26 04:21:27;;;;;;;0.32;0.32;;;-1.00;1.00;;;;;;5079009;28;20536;-68
2023/01/26 04:23:56;;;;;;;1.30;0.57;;;-1.00;1.00;;;;;;5086665;28;20914;-68
2023/01/26 04:26:33;;;;;;;0.38;0.38;;;-1.00;1.00;;;;;;5088695;28;20436;-68
2023/01/26 04:29:11;;;;;;;2.50;0.73;;;-1.00;99.90;;;;;;5108795;28;20428;-68
2023/01/26 04:31:38;;;;;;;0.40;0.40;;;-1.00;99.90;;;;;;5096283;28;20502;-68
2023/01/26 04:34:09;;;;;;;0.60;0.60;;;-1.00;99.90;;;;;;5091230;28;20432;-68
2023/01/26 04:36:36;;;;;;;0.17;0.17;;;-1.00;99.90;;;;;;5091566;28;20518;-68
2023/01/26 04:39:06;;;;;;;0.20;0.20;;;-1.00;99.90;;;;;;5089125;28;20457;-68
2023/01/26 04:41:34;;;;;;;0.47;0.47;;;-0.90;99.90;;;;;;5079801;28;20427;-68
2023/01/26 04:44:01;;;;;;;0.27;0.27;;;-0.90;99.90;;;;;;5095454;28;20443;-68
2023/01/26 04:46:29;;;;;;;0.40;0.40;;;-0.90;99.90;;;;;;5101127;28;20561;-68
2023/01/26 04:48:55;;;;;;;0.70;0.50;;;-0.90;89.70;;;;;;5088157;28;20970;-67
2023/01/26 04:51:23;;;;;;;0.22;0.22;;;-0.90;30.90;;;;;;5104661;28;20438;-68
2023/01/26 04:53:50;;;;;;;0.40;0.30;;;-0.80;6.50;;;;;;5101829;28;20431;-68
2023/01/26 04:56:16;;;;;;;0.90;0.50;;;-0.80;1.00;;;;;;5088764;28;20513;-68
2023/01/26 04:58:43;;;;;;;1.90;0.35;;;-0.70;1.00;;;;;;5078705;28;20842;-68
2023/01/26 05:01:10;;;;;;;1.30;0.32;;;-0.80;1.00;;;;;;5088973;28;20500;-67
2023/01/26 05:03:36;;;;;;;0.30;0.30;;;-0.70;1.00;;;;;;5075902;28;20446;-68
2023/01/26 05:06:03;;;;;;;0.20;0.20;;;-0.70;1.00;;;;;;5087529;28;20429;-67
2023/01/26 05:08:33;;;;;;;0.50;0.40;;;-0.70;1.00;;;;;;5079247;28;20452;-68
2023/01/26 05:11:05;;;;;;;0.10;0.10;;;-0.60;1.00;;;;;;5079018;28;20431;-68
2023/01/26 05:13:34;;;;;;;1.52;0.60;;;-0.60;1.00;;;;;;5077361;28;20434;-68
2023/01/26 05:16:05;;;;;;;1.60;0.30;;;-0.60;1.00;;;;;;5102514;28;20436;-67
2023/01/26 05:18:32;;;;;;;0.20;0.20;;;-0.60;99.90;;;;;;5088834;28;20442;-67
2023/01/26 05:20:58;;;;;;;0.10;0.10;;;-0.60;99.90;;;;;;5083880;28;21024;-67
2023/01/26 05:23:25;;;;;;;0.30;0.30;;;-0.60;99.90;;;;;;5077365;28;20463;-67
2023/01/26 05:25:52;;;;;;;0.15;0.15;;;-0.60;99.90;;;;;;5104534;28;20917;-67
2023/01/26 05:28:19;;;;;;;0.30;0.30;;;-0.50;99.90;;;;;;5088285;28;20929;-67
2023/01/26 05:30:46;;;;;;;0.40;0.40;;;-0.60;99.90;;;;;;5087524;28;20430;-67
2023/01/26 05:33:14;;;;;;;0.10;0.10;;;-0.60;99.90;;;;;;5085588;28;20430;-67
2023/01/26 05:35:42;;;;;;;0.20;0.20;;;-0.60;99.90;;;;;;5086280;28;20847;-67
2023/01/26 05:38:08;;;;;;;0.32;0.32;;;-0.60;99.90;;;;;;5085311;28;20451;-67
2023/01/26 05:40:35;;;;;;;0.20;0.20;;;-0.60;99.90;;;;;;5070453;28;20925;-67
2023/01/26 05:43:02;;;;;;;0.50;0.50;;;-0.60;99.90;;;;;;5070140;28;20435;-68
2023/01/26 05:45:29;;;;;;;0.30;0.30;;;-0.60;99.90;;;;;;5068281;28;20434;-68
2023/01/26 05:47:55;;;;;;;0.32;0.32;;;-0.70;99.90;;;;;;5083178;28;20527;-67
2023/01/26 05:50:22;;;;;;;0.28;0.28;;;-0.60;99.90;;;;;;5079219;28;20954;-67
2023/01/26 05:52:49;;;;;;;0.73;0.73;;;-0.60;99.90;;;;;;5077195;28;20530;-67
2023/01/26 05:55:19;;;;;;;0.30;0.30;;;-0.60;99.90;;;;;;5084041;28;20422;-67
2023/01/26 05:57:48;;;;;;;2.10;0.50;;;-0.60;99.90;;;;;;5087275;28;20507;-68
2023/01/26 06:00:16;;;;;;;2.00;0.32;;;-0.70;99.90;;;;;;5064409;28;20458;-68
2023/01/26 06:02:43;;;;;;;0.22;0.22;;;-0.60;99.90;;;;;;5075890;28;20430;-67
2023/01/26 06:05:11;;;;;;;0.63;0.63;;;-0.60;99.90;;;;;;5084000;28;20435;-67
2023/01/26 06:07:38;;;;;;;0.40;0.40;;;-0.60;99.90;;;;;;5079535;28;20441;-67
2023/01/26 06:10:05;;;;;;;0.88;0.57;;;-0.60;99.90;;;;;;5070536;28;20438;-68
2023/01/26 06:12:34;;;;;;;3.30;0.75;;;-0.70;99.90;;;;;;5079137;28;22668;-68
2023/01/26 06:15:01;;;;;;;0.35;0.35;;;-0.70;99.90;;;;;;5069940;28;20431;-67
2023/01/26 06:17:28;;;;;;;0.50;0.50;;;-0.60;99.90;;;;;;5087537;28;20431;-67
2023/01/26 06:19:55;;;;;;;0.90;0.63;;;-0.60;99.90;;;;;;5082689;28;20435;-67
2023/01/26 06:22:22;;;;;;;1.40;0.70;;;-0.60;99.90;;;;;;5075911;28;20439;-67
2023/01/26 06:24:48;;;;;;;1.40;1.30;;;-0.60;99.90;;;;;;5078152;28;20430;-68
2023/01/26 06:27:17;;;;;;;0.80;0.70;;;-0.60;99.90;;;;;;5075490;28;21212;-67
2023/01/26 06:29:44;;;;;;;0.90;0.50;;;-0.50;99.90;;;;;;5074379;28;21221;-67
2023/01/26 06:32:14;;;;;;;0.50;0.30;;;-0.50;99.90;;;;;;5077719;28;20472;-67
2023/01/26 06:34:41;;;;;;;1.90;0.88;;;-0.60;99.90;;;;;;5079116;28;20435;-67
2023/01/26 06:37:09;;;;;;;3.13;0.90;;;-0.50;99.90;;;;;;5077027;28;20941;-67
2023/01/26 06:39:36;;;;;;;0.85;0.73;;;-0.50;99.90;;;;;;5075661;28;20436;-67
2023/01/26 06:42:03;;;;;;;4.77;1.40;;;-0.60;99.90;;;;;;5084423;28;20456;-67
2023/01/26 06:44:30;;;;;;;0.50;0.50;;;-0.60;99.90;;;;;;5082852;28;20428;-67
2023/01/26 06:46:57;;;;;;;1.83;1.13;;;-0.60;99.90;;;;;;5084317;28;20428;-67
2023/01/26 06:49:23;;;;;;;0.80;0.80;;;-0.60;99.90;;;;;;5081481;28;20420;-66
2023/01/26 06:52:03;;;;;;;0.38;0.38;;;-0.70;99.90;;;;;;5084830;28;20941;-67
2023/01/26 06:54:29;;;;;;;0.50;0.50;;;-0.70;99.90;;;;;;5083126;28;20434;-67
2023/01/26 06:56:58;;;;;;;0.52;0.52;;;-0.70;99.90;;;;;;5085722;28;22256;-67
2023/01/26 06:59:25;;;;;;;0.85;0.85;;;-0.70;99.90;;;;;;5079096;28;20508;-67
2023/01/26 07:01:52;;;;;;;2.40;1.50;;;-0.80;99.90;;;;;;5092573;28;20420;-67
2023/01/26 07:04:18;;;;;;;5.50;0.80;;;-0.80;99.90;;;;;;5069494;28;20431;-67
2023/01/26 07:06:45;;;;;;;2.58;1.00;;;-0.80;99.90;;;;;;5059790;28;20431;-67
2023/01/26 07:09:12;;;;;;;0.83;0.67;;;-0.80;99.90;;;;;;5071512;28;20469;-67
2023/01/26 07:11:38;;;;;;;0.70;0.60;;;-0.80;99.90;;;;;;5076426;28;20440;-67
2023/01/26 07:14:05;;;;;;;0.73;0.73;;;-0.90;99.90;;;;;;5075906;28;20422;-67
2023/01/26 07:16:35;;;;;;;0.47;0.47;;;-0.90;99.90;;;;;;5076360;28;20518;-67
2023/01/26 07:19:02;;;;;;;1.17;1.17;;;-0.90;99.90;;;;;;5075108;28;20432;-67
2023/01/26 07:21:29;;;;;;;1.15;0.75;;;-0.90;99.90;;;;;;5078729;28;20781;-67
2023/01/26 07:23:56;;;;;;;2.10;1.00;;;-0.90;99.90;;;;;;5068026;28;20435;-67
2023/01/26 07:26:23;;;;;;;2.70;0.95;;;-0.90;95.40;;;;;;5074461;28;20532;-67
2023/01/26 07:28:50;;;;;;;1.00;0.65;;;-0.90;87.00;;;;;;5074962;28;20522;-67
2023/01/26 07:31:17;;;;;;;3.90;1.00;;;-0.90;77.00;;;;;;5076492;28;20422;-67
2023/01/26 07:33:44;;;;;;;1.13;1.05;;;-0.90;77.70;;;;;;5087621;28;20493;-67
2023/01/26 07:36:11;;;;;;;3.80;0.90;;;-0.90;80.30;;;;;;5089188;28;20478;-67
2023/01/26 07:38:38;;;;;;;0.40;0.40;;;-1.00;56.00;;;;;;5080303;28;20435;-67
2023/01/26 07:41:07;;;;;;;0.43;0.43;;;-1.00;55.90;;;;;;5076839;28;20946;-67
2023/01/26 07:43:35;;;;;;;1.10;0.40;;;-0.90;61.80;;;;;;5086901;28;20835;-67
2023/01/26 07:46:11;;;;;;;0.73;0.73;;;-0.90;45.10;;;;;;5079777;28;20431;-67
2023/01/26 07:48:39;;;;;;;0.45;0.45;;;-0.90;35.10;;;;;;5087126;28;20429;-66
2023/01/26 07:51:08;;;;;;;0.52;0.50;;;-0.90;21.30;;;;;;5087412;28;20427;-67
2023/01/26 07:53:38;;;;;;;0.45;0.45;;;-0.80;12.30;;;;;;5089059;28;20436;-67
2023/01/26 07:56:06;;;;;;;1.00;0.40;;;-0.80;5.00;;;;;;5085254;28;20517;-67
2023/01/26 07:58:34;;;;;;;1.67;0.65;;;-0.80;1.00;;;;;;5084623;28;20462;-67
2023/01/26 08:01:12;;;;;;;1.30;0.52;;;-0.80;1.00;;;;;;5072876;28;21008;-67
2023/01/26 08:03:39;;;;;;;0.50;0.50;;;-0.80;1.00;;;;;;5074236;28;20485;-67
2023/01/26 08:06:07;;;;;;;0.43;0.43;;;-0.70;1.00;;;;;;5079749;28;20425;-67
2023/01/26 08:08:40;;;;;;;0.80;0.80;;;-0.80;1.00;;;;;;5087058;28;20757;-67
2023/01/26 08:11:10;;;;;;;0.47;0.38;;;-0.70;1.00;;;;;;5086315;28;20433;-67
2023/01/26 08:13:37;;;;;;;1.20;0.77;;;-0.80;1.00;;;;;;5080497;28;20435;-67
2023/01/26 08:16:11;;;;;;;1.57;1.10;;;-0.80;1.00;;;;;;5083775;28;20473;-67
2023/01/26 08:18:43;;;;;;;0.52;0.52;;;-0.80;1.00;;;;;;5092255;28;20458;-67
2023/01/26 08:21:11;;;;;;;0.65;0.35;;;-0.80;1.00;;;;;;5075115;28;20836;-67
2023/01/26 08:23:38;;;;;;;1.50;0.50;;;-0.80;1.00;;;;;;5087917;28;20764;-67
2023/01/26 08:26:08;;;;;;;0.80;0.50;;;-0.80;1.00;;;;;;5084843;28;20446;-67
2023/01/26 08:28:35;;;;;;;0.70;0.50;;;-0.70;1.00;;;;;;5075737;28;20451;-67
2023/01/26 08:31:05;;;;;;;0.40;0.40;;;-0.70;1.00;;;;;;5082209;28;20427;-67
2023/01/26 08:33:33;;;;;;;1.80;0.88;;;-0.70;1.00;;;;;;5083995;28;20441;-67
2023/01/26 08:36:05;;;;;;;1.50;0.85;;;-0.70;1.00;;;;;;5086009;28;20428;-67
2023/01/26 08:38:33;;;;;;;1.50;0.60;;;-0.70;1.00;;;;;;5078452;28;20498;-67
2023/01/26 08:41:01;;;;;;;0.70;0.70;;;-0.70;1.00;;;;;;5080453;28;20436;-67
2023/01/26 08:43:28;;;;;;;0.90;0.90;;;-0.60;1.00;;;;;;5093885;28;20426;-67
2023/01/26 08:45:54;;;;;;;2.85;1.30;;;-0.60;1.00;;;;;;5077757;28;20440;-67
2023/01/26 08:48:21;;;;;;;0.50;0.50;;;-0.60;1.00;;;;;;5083530;28;20434;-66
2023/01/26 08:50:53;;;;;;;0.55;0.52;;;-0.60;1.00;;;;;;5094126;28;20420;-67
2023/01/26 08:53:19;;;;;;;0.90;0.80;;;-0.60;1.00;;;;;;5079009;28;21152;-67
2023/01/26 08:55:46;;;;;;;1.50;1.00;;;-0.60;1.00;;;;;;5090083;28;20944;-66
2023/01/26 08:58:13;;;;;;;2.25;1.48;;;-0.50;1.00;;;;;;5096512;28;20419;-66
2023/01/26 09:00:39;;;;;;;0.65;0.65;;;-0.50;1.00;;;;;;5076485;28;20496;-66
2023/01/26 09:03:07;;;;;;;0.88;0.85;;;-0.40;1.00;;;;;;5068739;28;20427;-66
2023/01/26 09:05:36;;;;;;;0.98;0.98;;;-0.40;1.00;;;;;;5080374;28;20526;-66
2023/01/26 09:08:04;;;;;;;0.88;0.88;;;-0.30;1.00;;;;;;5081908;28;22377;-66
2023/01/26 09:10:31;;;;;;;0.65;0.65;;;-0.40;1.00;;;;;;5081958;28;20445;-66
2023/01/26 09:12:59;;;;;;;2.40;1.38;;;-0.40;1.00;;;;;;5070163;28;20428;-66
2023/01/26 09:15:26;;;;;;;1.35;1.25;;;-0.40;1.00;;;;;;5087074;28;20855;-66
2023/01/26 09:17:53;;;;;;;0.97;0.90;;;-0.40;1.00;;;;;;5109484;28;20424;-66
2023/01/26 09:20:20;;;;;;;1.00;0.60;;;-0.40;1.00;;;;;;5084980;28;20427;-66
2023/01/26 09:22:47;;;;;;;1.10;0.60;;;-0.40;1.00;;;;;;5091472;28;20420;-66
2023/01/26 09:25:14;;;;;;;0.30;0.30;;;-0.30;1.00;;;;;;5091604;28;20427;-66
2023/01/26 09:27:40;;;;;;;1.08;0.60;;;-0.20;1.00;;;;;;5072578;28;20431;-66
2023/01/26 09:30:10;;;;;;;0.70;0.60;;;-0.20;1.00;;;;;;5069432;28;20427;-66
2023/01/26 09:32:37;;;;;;;0.52;0.52;;;-0.20;1.00;;;;;;5076529;28;20438;-66
2023/01/26 09:35:05;;;;;;;0.70;0.70;;;-0.10;1.00;;;;;;5068985;28;20957;-66
2023/01/26 09:37:31;;;;;;;1.40;1.00;;;-0.10;1.00;;;;;;5081088;28;20463;-66
2023/01/26 09:39:58;;;;;;;0.50;0.50;;;-0.20;1.00;;;;;;5082222;28;20432;-66
2023/01/26 09:42:49;;;;;;;0.65;0.57;;;-0.20;1.00;;;;;;5082736;28;21008;-66
2023/01/26 09:45:25;;;;;;;0.97;0.77;;;-0.20;1.00;;;;;;5068886;28;21004;-66
2023/01/26 09:48:28;;;;;;;0.60;0.60;;;-0.20;1.00;;;;;;5073597;28;20438;-66
2023/01/26 09:51:10;;;;;;;0.40;0.40;;;-0.20;1.00;;;;;;5081857;28;20449;-66
2023/01/26 09:53:40;;;;;;;1.10;1.00;;;-0.30;1.00;;;;;;5088982;28;20441;-66
2023/01/26 09:56:18;;;;;;;0.55;0.55;;;-0.20;1.00;;;;;;5094099;28;20433;-66
2023/01/26 09:59:10;;;;;;;0.40;0.40;;;-0.20;1.00;;;;;;5097800;28;20436;-66
2023/01/26 10:01:46;;;;;;;0.63;0.52;;;-0.30;1.00;;;;;;5081153;28;20423;-66
2023/01/26 10:04:35;;;;;;;0.40;0.40;;;-0.20;1.00;;;;;;5086129;28;20915;-66
2023/01/26 10:07:13;;;;;;;0.70;0.70;;;-0.20;1.00;;;;;;5086892;28;20974;-66
2023/01/26 10:09:43;;;;;;;0.50;0.50;;;-0.20;1.00;;;;;;5075685;28;20436;-66
2023/01/26 10:12:24;;;;;;;0.60;0.50;;;-0.10;1.00;;;;;;5090027;28;20561;-68
2023/01/26 10:15:42;;;;;;;0.50;0.50;;;-0.30;1.00;;;;;;5088908;28;20509;-66
2023/01/26 10:18:18;;;;;;;0.68;0.68;;;-0.30;1.00;;;;;;5044662;28;20547;-67
2023/01/26 10:20:51;;;;;;;0.70;0.70;;;-0.30;1.00;;;;;;5041603;28;20518;-67
2023/01/26 10:23:30;;;;;;;0.60;0.60;;;-0.30;1.00;;;;;;5036283;28;20425;-69
2023/01/26 10:26:18;;;;;;;0.85;0.85;;;-0.20;1.00;;;;;;5044979;28;20460;-67
2023/01/26 10:28:47;;;;;;;1.80;0.77;;;0.00;1.00;;;;;;5044993;28;20425;-67
2023/01/26 10:31:17;;;;;;;2.97;0.88;;;0.10;1.00;;;;;;5029317;28;20492;-67
2023/01/26 10:33:54;;;;;;;0.75;0.73;;;0.10;1.00;;;;;;5043104;28;20476;-67
2023/01/26 10:36:22;;;;;;;1.67;1.00;;;0.10;1.00;;;;;;5032546;28;20508;-66
2023/01/26 10:38:49;;;;;;;0.45;0.45;;;0.00;1.00;;;;;;5030753;28;20463;-67
2023/01/26 10:41:19;;;;;;;0.90;0.90;;;-0.10;1.00;;;;;;5032765;28;20445;-67
2023/01/26 10:44:14;;;;;;;1.00;0.60;;;-0.10;1.00;;;;;;5026165;28;20858;-67
2023/01/26 10:46:42;;;;;;;1.48;1.08;;;0.00;1.00;;;;;;4974112;28;20450;-67
2023/01/26 10:49:08;;;;;;;2.38;1.13;;;0.10;1.00;;;;;;4992343;28;20811;-66
2023/01/26 10:51:38;;;;;;;3.08;1.10;;;0.10;1.00;;;;;;4987333;28;20426;-68
2023/01/26 10:54:23;;;;;;;4.00;1.15;;;0.20;1.00;;;;;;5012354;28;20433;-67
2023/01/26 10:57:24;;;;;;;0.65;0.65;;;0.30;1.00;;;;;;5018455;28;20430;-68
2023/01/26 10:59:59;;;;;;;1.20;0.80;;;0.40;1.00;;;;;;5012155;28;20429;-68
2023/01/26 11:02:28;;;;;;;1.10;0.90;;;0.50;1.00;;;;;;5028674;28;20469;-68
2023/01/26 11:05:07;;;;;;;2.65;1.25;;;0.60;1.00;;;;;;5010409;28;20433;-68
2023/01/26 11:07:39;;;;;;;0.80;0.80;;;0.60;1.00;;;;;;5006299;28;20443;-68
2023/01/26 11:10:16;;;;;;;3.17;0.73;;;0.60;1.00;;;;;;5016300;28;20937;-68
2023/01/26 11:12:43;;;;;;;27.98;7.55;;;0.70;1.00;;;;;;5022888;28;21009;-68
2023/01/26 11:15:21;;;;;;;1.10;0.80;;;0.70;1.00;;;;;;5009395;28;20479;-68
2023/01/26 11:17:58;;;;;;;2.20;1.95;;;0.80;1.00;;;;;;5009414;28;20428;-68
2023/01/26 11:20:55;;;;;;;1.40;0.68;;;0.90;1.00;;;;;;5013003;28;20427;-68
2023/01/26 11:23:47;;;;;;;0.73;0.57;;;0.80;1.00;;;;;;5041895;28;20420;-70
2023/01/26 11:26:23;;;;;;;0.75;0.75;;;0.80;1.00;;;;;;5075439;28;20923;-66
2023/01/26 11:28:55;;;;;;;0.73;0.73;;;0.70;1.00;;;;;;5079099;28;20428;-66
2023/01/26 11:31:56;;;;;;;0.75;0.75;;;0.50;1.00;;;;;;5082362;28;20437;-68
2023/01/26 11:34:27;;;;;;;0.80;0.80;;;0.50;1.00;;;;;;5069913;28;20839;-68
2023/01/26 11:37:11;;;;;;;0.73;0.73;;;0.50;1.00;;;;;;5084008;28;20416;-68
2023/01/26 11:39:56;;;;;;;0.63;0.63;;;0.50;1.00;;;;;;5076488;28;20430;-67
2023/01/26 11:42:52;;;;;;;2.65;0.80;;;0.40;1.00;;;;;;5069864;28;20452;-67
2023/01/26 11:45:32;;;;;;;1.35;0.75;;;0.20;99.90;;;;;;5032073;28;20439;-68
2023/01/26 11:48:24;;;;;;;0.33;0.33;;;0.20;99.90;;;;;;5027334;28;20487;-66
2023/01/26 11:50:51;;;;;;;0.80;0.80;;;0.20;99.90;;;;;;5032818;28;20431;-68
2023/01/26 11:53:39;;;;;;;1.25;1.00;;;0.40;99.90;;;;;;5038382;28;20606;-67
2023/01/26 11:56:18;;;;;;;1.75;0.82;;;0.40;99.90;;;;;;5031934;28;20440;-67
2023/01/26 11:58:52;;;;;;;0.70;0.70;;;0.50;99.90;;;;;;5039225;28;20430;-67
2023/01/26 12:01:30;;;;;;;0.75;0.75;;;0.50;99.90;;;;;;5033383;28;21090;-72
2023/01/26 12:03:57;;;;;;;0.93;0.93;;;0.60;99.90;;;;;;5032996;28;21545;-68
2023/01/26 12:06:38;;;;;;;1.40;0.57;;;0.60;99.90;;;;;;5026800;28;20437;-68
2023/01/26 12:09:35;;;;;;;0.35;0.35;;;0.70;99.90;;;;;;5012462;28;21004;-67
2023/01/26 12:12:21;;;;;;;0.98;0.98;;;0.70;99.90;;;;;;5021838;28;20918;-68
2023/01/26 12:14:54;;;;;;;0.40;0.40;;;0.70;99.90;;;;;;5051120;28;20437;-66
2023/01/26 12:17:45;;;;;;;0.60;0.60;;;0.80;99.90;;;;;;5042107;28;20429;-68
2023/01/26 12:20:44;;;;;;;0.45;0.45;;;0.90;99.90;;;;;;5029560;28;20433;-67
2023/01/26 12:23:24;;;;;;;0.40;0.40;;;0.90;99.90;;;;;;5079535;28;20421;-68
2023/01/26 12:26:12;;;;;;;0.52;0.52;;;0.80;99.90;;;;;;5077232;28;20550;-68
2023/01/26 12:29:08;;;;;;;0.40;0.40;;;0.70;99.90;;;;;;5072861;28;20430;-68
2023/01/26 12:32:03;;;;;;;0.65;0.65;;;0.80;99.90;;;;;;5083203;28;20509;-68
2023/01/26 12:34:32;;;;;;;0.52;0.45;;;0.90;99.90;;;;;;5089492;28;20429;-68
2023/01/26 12:37:22;;;;;;;0.40;0.40;;;1.10;99.90;;;;;;5111362;28;20468;-68
2023/01/26 12:40:21;;;;;;;0.45;0.45;;;1.30;99.90;;;;;;5102158;28;20588;-68
2023/01/26 12:43:09;;;;;;;0.75;0.75;;;1.50;99.90;;;;;;5070924;28;20466;-68
2023/01/26 12:45:41;;;;;;;1.30;0.60;;;1.60;99.90;;;;;;5097585;28;20835;-68
2023/01/26 12:48:20;;;;;;;0.85;0.85;;;1.60;99.90;;;;;;5087129;28;20513;-68
2023/01/26 12:51:07;;;;;;;1.00;1.00;;;1.60;99.90;;;;;;5090815;28;20424;-68
2023/01/26 12:53:59;;;;;;;0.60;0.60;;;1.60;99.90;;;;;;5080019;28;20510;-68
2023/01/26 12:56:39;;;;;;;0.38;0.38;;;1.60;99.90;;;;;;5071900;28;20443;-68
2023/01/26 12:59:15;;;;;;;0.50;0.50;;;1.70;99.90;;;;;;5074837;28;20458;-68
2023/01/26 13:02:33;;;;;;;0.90;0.90;;;1.70;99.90;;;;;;5076839;28;20419;-67
2023/01/26 13:05:02;;;;;;;0.73;0.63;;;1.60;99.90;;;;;;5032729;28;21743;-67
2023/01/26 13:07:38;;;;;;;0.70;0.50;;;1.60;99.90;;;;;;5044050;28;20560;-67
2023/01/26 13:10:18;;;;;;;1.20;0.73;;;1.50;99.90;;;;;;5042548;28;20512;-67
2023/01/26 13:13:12;;;;;;;4.45;1.50;;;1.70;99.90;;;;;;5045654;28;20444;-67
2023/01/26 13:15:39;;;;;;;1.90;0.80;;;1.70;99.90;;;;;;4973627;28;20445;-67
2023/01/26 13:18:14;;;;;;;5.50;1.23;;;1.80;99.90;;;;;;4969945;28;20435;-67
2023/01/26 13:20:48;;;;;;;5.93;2.65;;;1.70;99.90;;;;;;4966769;28;20436;-67
2023/01/26 13:23:27;;;;;;;4.55;0.90;;;1.50;99.90;;;;;;4953387;28;20435;-67
2023/01/26 13:26:35;;;;;;;3.10;1.00;;;1.50;99.90;;;;;;4965428;28;20438;-67
2023/01/26 13:29:23;;;;;;;2.30;0.50;;;1.40;99.90;;;;;;4951556;28;20563;-67
2023/01/26 13:31:51;;;;;;;1.50;1.27;;;1.10;99.90;;;;;;4959436;28;20493;-67
2023/01/26 13:34:41;;;;;;;3.00;1.38;;;0.90;99.90;;;;;;4962811;28;20436;-67
2023/01/26 13:37:31;;;;;;;1.48;0.80;;;0.80;99.90;;;;;;4956399;28;20527;-67
2023/01/26 13:40:32;;;;;;;0.70;0.70;;;0.80;99.90;;;;;;4967110;28;20432;-67
2023/01/26 13:43:06;;;;;;;0.68;0.68;;;0.90;99.90;;;;;;5020806;28;20519;-67
2023/01/26 13:45:59;;;;;;;2.47;0.60;;;1.00;99.90;;;;;;5014044;28;20522;-67
2023/01/26 13:48:39;;;;;;;0.43;0.43;;;1.00;99.90;;;;;;5028231;28;20433;-67
2023/01/26 13:51:11;;;;;;;2.10;1.13;;;0.80;99.90;;;;;;5031013;28;21102;-67
2023/01/26 13:53:46;;;;;;;0.80;0.60;;;0.50;99.90;;;;;;5068735;28;20516;-67
2023/01/26 13:56:27;;;;;;;0.47;0.47;;;0.30;99.90;;;;;;5074370;28;20434;-68
2023/01/26 13:59:04;;;;;;;0.82;0.82;;;0.30;99.90;;;;;;5077268;28;20430;-67
2023/01/26 14:01:41;;;;;;;0.90;0.90;;;0.20;99.90;;;;;;5087664;28;20430;-68
2023/01/26 14:04:16;;;;;;;0.80;0.70;;;0.10;99.90;;;;;;5081438;28;20517;-67
2023/01/26 14:07:03;;;;;;;0.82;0.82;;;0.10;99.90;;;;;;5085304;28;20431;-67
2023/01/26 14:09:43;;;;;;;0.70;0.70;;;0.00;99.90;;;;;;5075337;28;20429;-67
2023/01/26 14:12:20;;;;;;;0.57;0.47;;;0.00;99.90;;;;;;5079640;28;20516;-67